sensor_id;sensor_type;location;lat;lon;timestamp;temperature;humidity
1992;DHT22;997;48.448;8.924;2024-01-30T00:01:37;4.40;99.90
1992;DHT22;997;48.448;8.924;2024-01-30T00:04:03;4.40;99.90
1992;DHT22;997;48.448;8.924;2024-01-30T00:06:29;4.50;99.90
1992;DHT22;997;48.448;8.924;2024-01-30T00:08:54;4.50;99.90
1992;DHT22;997;48.448;8.924;2024-01-30T00:11:20;4.50;99.90
1992;DHT22;997;48.448;8.924;2024-01-30T00:13:46;4.60;99.90
1992;DHT22;997;48.448;8.924;2024-01-30T00:16:22;4.70;99.90
1992;DHT22;997;48.448;8.924;2024-01-30T00:18:50;4.80;99.90
1992;DHT22;997;48.448;8.924;2024-01-30T00:21:16;4.90;99.90
1992;DHT22;997;48.448;8.924;2024-01-30T00:23:42;5.00;99.90
1992;DHT22;997;48.448;8.924;2024-01-30T00:26:07;5.10;99.90
1992;DHT22;997;48.448;8.924;2024-01-30T00:28:33;5.10;99.90
1992;DHT22;997;48.448;8.924;2024-01-30T00:30:59;5.10;99.90
1992;DHT22;997;48.448;8.924;2024-01-30T00:33:24;5.10;99.90
1992;DHT22;997;48.448;8.924;2024-01-30T00:35:50;5.10;99.90
1992;DHT22;997;48.448;8.924;2024-01-30T00:38:15;5.00;99.90
1992;DHT22;997;48.448;8.924;2024-01-30T00:40:41;5.00;99.90
1992;DHT22;997;48.448;8.924;2024-01-30T00:43:07;5.00;99.90
1992;DHT22;997;48.448;8.924;2024-01-30T00:45:32;5.00;99.90
1992;DHT22;997;48.448;8.924;2024-01-30T00:47:58;5.00;99.90
1992;DHT22;997;48.448;8.924;2024-01-30T00:50:23;5.00;99.90
1992;DHT22;997;48.448;8.924;2024-01-30T00:52:49;5.10;99.90
1992;DHT22;997;48.448;8.924;2024-01-30T00:55:15;5.10;99.90
1992;DHT22;997;48.448;8.924;2024-01-30T00:57:40;5.00;99.90
1992;DHT22;997;48.448;8.924;2024-01-30T01:00:07;5.00;99.90
1992;DHT22;997;48.448;8.924;2024-01-30T01:02:35;4.90;99.90
1992;DHT22;997;48.448;8.924;2024-01-30T01:05:01;4.90;99.90
1992;DHT22;997;48.448;8.924;2024-01-30T01:07:27;4.90;99.90
1992;DHT22;997;48.448;8.924;2024-01-30T01:09:53;4.90;99.90
1992;DHT22;997;48.448;8.924;2024-01-30T01:12:18;4.80;99.90
1992;DHT22;997;48.448;8.924;2024-01-30T01:14:44;4.70;99.90
1992;DHT22;997;48.448;8.924;2024-01-30T01:17:10;4.70;99.90
1992;DHT22;997;48.448;8.924;2024-01-30T01:19:36;4.60;99.90
1992;DHT22;997;48.448;8.924;2024-01-30T01:22:02;4.50;99.90
1992;DHT22;997;48.448;8.924;2024-01-30T01:24:30;4.50;99.90
1992;DHT22;997;48.448;8.924;2024-01-30T01:26:56;4.40;99.90
1992;DHT22;997;48.448;8.924;2024-01-30T01:29:22;4.40;99.90
1992;DHT22;997;48.448;8.924;2024-01-30T01:31:57;4.50;99.90
1992;DHT22;997;48.448;8.924;2024-01-30T01:34:23;4.50;99.90
1992;DHT22;997;48.448;8.924;2024-01-30T01:36:49;4.60;99.90
1992;DHT22;997;48.448;8.924;2024-01-30T01:39:15;4.60;99.90
1992;DHT22;997;48.448;8.924;2024-01-30T01:41:41;4.70;99.90
1992;DHT22;997;48.448;8.924;2024-01-30T01:44:07;4.80;99.90
1992;DHT22;997;48.448;8.924;2024-01-30T01:46:34;4.80;99.90
1992;DHT22;997;48.448;8.924;2024-01-30T01:49:02;4.80;99.90
1992;DHT22;997;48.448;8.924;2024-01-30T01:51:28;4.60;99.90
1992;DHT22;997;48.448;8.924;2024-01-30T01:53:56;4.60;99.90
1992;DHT22;997;48.448;8.924;2024-01-30T01:56:23;4.70;99.90
1992;DHT22;997;48.448;8.924;2024-01-30T01:58:50;4.70;99.90
1992;DHT22;997;48.448;8.924;2024-01-30T02:01:19;4.60;99.90
1992;DHT22;997;48.448;8.924;2024-01-30T02:03:46;4.60;99.90
1992;DHT22;997;48.448;8.924;2024-01-30T02:06:13;4.50;99.90
1992;DHT22;997;48.448;8.924;2024-01-30T02:08:39;4.60;99.90
1992;DHT22;997;48.448;8.924;2024-01-30T02:11:05;4.60;99.90
1992;DHT22;997;48.448;8.924;2024-01-30T02:13:31;4.60;99.90
1992;DHT22;997;48.448;8.924;2024-01-30T02:15:56;4.60;99.90
1992;DHT22;997;48.448;8.924;2024-01-30T02:18:22;4.70;99.90
1992;DHT22;997;48.448;8.924;2024-01-30T02:20:48;4.70;99.90
1992;DHT22;997;48.448;8.924;2024-01-30T02:23:15;4.90;99.90
1992;DHT22;997;48.448;8.924;2024-01-30T02:25:42;4.80;99.90
1992;DHT22;997;48.448;8.924;2024-01-30T02:28:12;5.00;99.90
1992;DHT22;997;48.448;8.924;2024-01-30T02:30:39;4.90;99.90
1992;DHT22;997;48.448;8.924;2024-01-30T02:33:05;4.90;99.90
1992;DHT22;997;48.448;8.924;2024-01-30T02:35:30;4.90;99.90
1992;DHT22;997;48.448;8.924;2024-01-30T02:37:56;4.80;99.90
1992;DHT22;997;48.448;8.924;2024-01-30T02:40:22;4.60;99.90
1992;DHT22;997;48.448;8.924;2024-01-30T02:42:47;4.60;99.90
1992;DHT22;997;48.448;8.924;2024-01-30T02:45:13;4.60;99.90
1992;DHT22;997;48.448;8.924;2024-01-30T02:47:39;4.50;99.90
1992;DHT22;997;48.448;8.924;2024-01-30T02:50:05;4.40;99.90
1992;DHT22;997;48.448;8.924;2024-01-30T02:52:31;4.40;99.90
1992;DHT22;997;48.448;8.924;2024-01-30T02:54:57;4.30;99.90
1992;DHT22;997;48.448;8.924;2024-01-30T02:57:22;4.30;99.90
1992;DHT22;997;48.448;8.924;2024-01-30T02:59:48;4.20;99.90
1992;DHT22;997;48.448;8.924;2024-01-30T03:02:14;4.00;99.90
1992;DHT22;997;48.448;8.924;2024-01-30T03:04:41;4.00;99.90
1992;DHT22;997;48.448;8.924;2024-01-30T03:07:07;4.00;99.90
1992;DHT22;997;48.448;8.924;2024-01-30T03:09:32;3.80;99.90
1992;DHT22;997;48.448;8.924;2024-01-30T03:11:58;3.80;99.90
1992;DHT22;997;48.448;8.924;2024-01-30T03:14:24;3.70;99.90
1992;DHT22;997;48.448;8.924;2024-01-30T03:16:50;3.70;99.90
1992;DHT22;997;48.448;8.924;2024-01-30T03:19:15;3.60;99.90
1992;DHT22;997;48.448;8.924;2024-01-30T03:21:41;3.60;99.90
1992;DHT22;997;48.448;8.924;2024-01-30T03:24:06;3.50;99.90
1992;DHT22;997;48.448;8.924;2024-01-30T03:26:32;3.50;99.90
1992;DHT22;997;48.448;8.924;2024-01-30T03:28:58;3.40;99.90
1992;DHT22;997;48.448;8.924;2024-01-30T03:31:23;3.40;99.90
1992;DHT22;997;48.448;8.924;2024-01-30T03:33:49;3.30;99.90
1992;DHT22;997;48.448;8.924;2024-01-30T03:36:15;3.30;99.90
1992;DHT22;997;48.448;8.924;2024-01-30T03:38:41;3.30;99.90
1992;DHT22;997;48.448;8.924;2024-01-30T03:41:08;3.20;99.90
1992;DHT22;997;48.448;8.924;2024-01-30T03:43:34;3.20;99.90
1992;DHT22;997;48.448;8.924;2024-01-30T03:46:01;3.20;99.90
1992;DHT22;997;48.448;8.924;2024-01-30T03:48:28;3.10;99.90
1992;DHT22;997;48.448;8.924;2024-01-30T03:50:54;3.10;99.90
1992;DHT22;997;48.448;8.924;2024-01-30T03:53:19;3.00;99.90
1992;DHT22;997;48.448;8.924;2024-01-30T03:55:45;3.00;99.90
1992;DHT22;997;48.448;8.924;2024-01-30T03:58:11;3.00;99.90
1992;DHT22;997;48.448;8.924;2024-01-30T04:00:36;3.10;99.90
1992;DHT22;997;48.448;8.924;2024-01-30T04:03:02;3.10;99.90
1992;DHT22;997;48.448;8.924;2024-01-30T04:05:28;3.20;99.90
1992;DHT22;997;48.448;8.924;2024-01-30T04:07:54;3.40;99.90
1992;DHT22;997;48.448;8.924;2024-01-30T04:10:20;3.60;99.90
1992;DHT22;997;48.448;8.924;2024-01-30T04:12:45;3.60;99.90
1992;DHT22;997;48.448;8.924;2024-01-30T04:15:11;3.70;99.90
1992;DHT22;997;48.448;8.924;2024-01-30T04:17:37;3.70;99.90
1992;DHT22;997;48.448;8.924;2024-01-30T04:20:02;3.80;99.90
1992;DHT22;997;48.448;8.924;2024-01-30T04:22:28;3.90;99.90
1992;DHT22;997;48.448;8.924;2024-01-30T04:24:54;3.80;99.90
1992;DHT22;997;48.448;8.924;2024-01-30T04:27:20;3.80;99.90
1992;DHT22;997;48.448;8.924;2024-01-30T04:29:45;3.80;99.90
1992;DHT22;997;48.448;8.924;2024-01-30T04:32:11;3.70;99.90
1992;DHT22;997;48.448;8.924;2024-01-30T04:34:37;3.70;99.90
1992;DHT22;997;48.448;8.924;2024-01-30T04:37:03;3.70;99.90
1992;DHT22;997;48.448;8.924;2024-01-30T04:39:28;3.60;99.90
1992;DHT22;997;48.448;8.924;2024-01-30T04:41:54;3.50;99.90
1992;DHT22;997;48.448;8.924;2024-01-30T04:44:20;3.60;99.90
1992;DHT22;997;48.448;8.924;2024-01-30T04:46:45;3.50;99.90
1992;DHT22;997;48.448;8.924;2024-01-30T04:49:11;3.50;99.90
1992;DHT22;997;48.448;8.924;2024-01-30T04:51:37;3.50;99.90
1992;DHT22;997;48.448;8.924;2024-01-30T04:54:02;3.40;99.90
1992;DHT22;997;48.448;8.924;2024-01-30T04:56:28;3.40;99.90
1992;DHT22;997;48.448;8.924;2024-01-30T04:58:53;3.40;99.90
1992;DHT22;997;48.448;8.924;2024-01-30T05:01:19;3.50;99.90
1992;DHT22;997;48.448;8.924;2024-01-30T05:03:45;3.50;99.90
1992;DHT22;997;48.448;8.924;2024-01-30T05:06:10;3.50;99.90
1992;DHT22;997;48.448;8.924;2024-01-30T05:08:36;3.50;99.90
1992;DHT22;997;48.448;8.924;2024-01-30T05:11:02;3.50;99.90
1992;DHT22;997;48.448;8.924;2024-01-30T05:13:31;3.50;99.90
1992;DHT22;997;48.448;8.924;2024-01-30T05:15:57;3.40;99.90
1992;DHT22;997;48.448;8.924;2024-01-30T05:18:23;3.40;99.90
1992;DHT22;997;48.448;8.924;2024-01-30T05:20:50;3.40;99.90
1992;DHT22;997;48.448;8.924;2024-01-30T05:23:16;3.50;99.90
1992;DHT22;997;48.448;8.924;2024-01-30T05:25:42;3.40;99.90
1992;DHT22;997;48.448;8.924;2024-01-30T05:28:08;3.50;99.90
1992;DHT22;997;48.448;8.924;2024-01-30T05:30:33;3.60;99.90
1992;DHT22;997;48.448;8.924;2024-01-30T05:32:59;3.70;99.90
1992;DHT22;997;48.448;8.924;2024-01-30T05:35:24;3.60;99.90
1992;DHT22;997;48.448;8.924;2024-01-30T05:37:51;3.60;99.90
1992;DHT22;997;48.448;8.924;2024-01-30T05:40:17;3.70;99.90
1992;DHT22;997;48.448;8.924;2024-01-30T05:42:43;3.70;99.90
1992;DHT22;997;48.448;8.924;2024-01-30T05:45:08;3.80;99.90
1992;DHT22;997;48.448;8.924;2024-01-30T05:47:35;3.80;99.90
1992;DHT22;997;48.448;8.924;2024-01-30T05:50:00;3.80;99.90
1992;DHT22;997;48.448;8.924;2024-01-30T05:52:26;3.60;99.90
1992;DHT22;997;48.448;8.924;2024-01-30T05:54:52;3.50;99.90
1992;DHT22;997;48.448;8.924;2024-01-30T05:57:17;3.50;99.90
1992;DHT22;997;48.448;8.924;2024-01-30T05:59:44;3.50;99.90
1992;DHT22;997;48.448;8.924;2024-01-30T06:02:10;3.20;99.90
1992;DHT22;997;48.448;8.924;2024-01-30T06:04:36;3.20;99.90
1992;DHT22;997;48.448;8.924;2024-01-30T06:07:02;3.20;99.90
1992;DHT22;997;48.448;8.924;2024-01-30T06:09:28;3.20;99.90
1992;DHT22;997;48.448;8.924;2024-01-30T06:11:54;3.20;99.90
1992;DHT22;997;48.448;8.924;2024-01-30T06:14:20;3.20;99.90
1992;DHT22;997;48.448;8.924;2024-01-30T06:16:46;3.10;99.90
1992;DHT22;997;48.448;8.924;2024-01-30T06:19:12;3.20;99.90
1992;DHT22;997;48.448;8.924;2024-01-30T06:21:37;3.30;99.90
1992;DHT22;997;48.448;8.924;2024-01-30T06:24:04;3.30;99.90
1992;DHT22;997;48.448;8.924;2024-01-30T06:26:30;3.40;99.90
1992;DHT22;997;48.448;8.924;2024-01-30T06:28:55;3.50;99.90
1992;DHT22;997;48.448;8.924;2024-01-30T06:31:21;3.50;99.90
1992;DHT22;997;48.448;8.924;2024-01-30T06:33:50;3.50;99.90
1992;DHT22;997;48.448;8.924;2024-01-30T06:36:16;3.50;99.90
1992;DHT22;997;48.448;8.924;2024-01-30T06:38:42;3.50;99.90
1992;DHT22;997;48.448;8.924;2024-01-30T06:41:07;3.60;99.90
1992;DHT22;997;48.448;8.924;2024-01-30T06:43:33;3.60;99.90
1992;DHT22;997;48.448;8.924;2024-01-30T06:45:59;3.50;99.90
1992;DHT22;997;48.448;8.924;2024-01-30T06:48:25;3.40;99.90
1992;DHT22;997;48.448;8.924;2024-01-30T06:50:53;3.50;99.90
1992;DHT22;997;48.448;8.924;2024-01-30T06:53:19;3.60;99.90
1992;DHT22;997;48.448;8.924;2024-01-30T06:55:45;3.40;99.90
1992;DHT22;997;48.448;8.924;2024-01-30T06:58:11;3.40;99.90
1992;DHT22;997;48.448;8.924;2024-01-30T07:00:37;3.40;99.90
1992;DHT22;997;48.448;8.924;2024-01-30T07:03:06;3.40;99.90
1992;DHT22;997;48.448;8.924;2024-01-30T07:05:32;3.40;99.90
1992;DHT22;997;48.448;8.924;2024-01-30T07:07:57;3.30;99.90
1992;DHT22;997;48.448;8.924;2024-01-30T07:10:23;3.40;99.90
1992;DHT22;997;48.448;8.924;2024-01-30T07:12:49;3.30;99.90
1992;DHT22;997;48.448;8.924;2024-01-30T07:15:14;3.20;99.90
1992;DHT22;997;48.448;8.924;2024-01-30T07:17:43;3.30;99.90
1992;DHT22;997;48.448;8.924;2024-01-30T07:20:09;3.30;99.90
1992;DHT22;997;48.448;8.924;2024-01-30T07:22:36;3.20;99.90
1992;DHT22;997;48.448;8.924;2024-01-30T07:25:01;3.30;99.90
1992;DHT22;997;48.448;8.924;2024-01-30T07:27:27;3.40;99.90
1992;DHT22;997;48.448;8.924;2024-01-30T07:29:53;3.40;99.90
1992;DHT22;997;48.448;8.924;2024-01-30T07:32:18;3.40;99.90
1992;DHT22;997;48.448;8.924;2024-01-30T07:34:44;3.50;99.90
1992;DHT22;997;48.448;8.924;2024-01-30T07:37:10;3.60;99.90
1992;DHT22;997;48.448;8.924;2024-01-30T07:39:38;3.60;99.90
1992;DHT22;997;48.448;8.924;2024-01-30T07:42:04;3.70;99.90
1992;DHT22;997;48.448;8.924;2024-01-30T07:44:30;3.70;99.90
1992;DHT22;997;48.448;8.924;2024-01-30T07:46:55;3.80;99.90
1992;DHT22;997;48.448;8.924;2024-01-30T07:49:22;3.80;99.90
1992;DHT22;997;48.448;8.924;2024-01-30T07:51:48;3.70;99.90
1992;DHT22;997;48.448;8.924;2024-01-30T07:54:13;3.70;99.90
1992;DHT22;997;48.448;8.924;2024-01-30T07:56:39;3.70;99.90
1992;DHT22;997;48.448;8.924;2024-01-30T07:59:05;3.70;99.90
1992;DHT22;997;48.448;8.924;2024-01-30T08:01:30;3.70;99.90
1992;DHT22;997;48.448;8.924;2024-01-30T08:03:56;3.90;99.90
1992;DHT22;997;48.448;8.924;2024-01-30T08:06:22;3.90;99.90
1992;DHT22;997;48.448;8.924;2024-01-30T08:08:47;4.00;99.90
1992;DHT22;997;48.448;8.924;2024-01-30T08:11:13;4.00;99.90
1992;DHT22;997;48.448;8.924;2024-01-30T08:13:39;4.00;99.90
1992;DHT22;997;48.448;8.924;2024-01-30T08:16:05;4.10;99.90
1992;DHT22;997;48.448;8.924;2024-01-30T08:18:31;4.10;99.90
1992;DHT22;997;48.448;8.924;2024-01-30T08:20:57;4.20;99.90
1992;DHT22;997;48.448;8.924;2024-01-30T08:23:23;4.20;99.90
1992;DHT22;997;48.448;8.924;2024-01-30T08:25:48;4.40;99.90
1992;DHT22;997;48.448;8.924;2024-01-30T08:28:14;4.50;99.90
1992;DHT22;997;48.448;8.924;2024-01-30T08:30:40;4.70;99.90
1992;DHT22;997;48.448;8.924;2024-01-30T08:33:05;4.80;99.90
1992;DHT22;997;48.448;8.924;2024-01-30T08:35:31;5.00;99.90
1992;DHT22;997;48.448;8.924;2024-01-30T08:37:59;5.10;99.90
1992;DHT22;997;48.448;8.924;2024-01-30T08:40:25;5.00;99.90
1992;DHT22;997;48.448;8.924;2024-01-30T08:42:51;5.00;99.90
1992;DHT22;997;48.448;8.924;2024-01-30T08:45:16;5.00;99.90
1992;DHT22;997;48.448;8.924;2024-01-30T08:47:42;5.20;99.90
1992;DHT22;997;48.448;8.924;2024-01-30T08:50:08;5.30;99.90
1992;DHT22;997;48.448;8.924;2024-01-30T08:52:34;5.40;99.90
1992;DHT22;997;48.448;8.924;2024-01-30T08:55:00;5.40;99.90
1992;DHT22;997;48.448;8.924;2024-01-30T08:57:26;5.50;99.90
1992;DHT22;997;48.448;8.924;2024-01-30T08:59:54;5.50;99.90
1992;DHT22;997;48.448;8.924;2024-01-30T09:02:20;5.60;99.90
1992;DHT22;997;48.448;8.924;2024-01-30T09:04:46;5.70;99.90
1992;DHT22;997;48.448;8.924;2024-01-30T09:07:12;5.80;99.90
1992;DHT22;997;48.448;8.924;2024-01-30T09:09:39;6.00;99.90
1992;DHT22;997;48.448;8.924;2024-01-30T09:12:06;6.20;99.90
1992;DHT22;997;48.448;8.924;2024-01-30T09:14:35;6.30;99.90
1992;DHT22;997;48.448;8.924;2024-01-30T09:17:01;6.30;99.90
1992;DHT22;997;48.448;8.924;2024-01-30T09:19:28;6.40;99.90
1992;DHT22;997;48.448;8.924;2024-01-30T09:21:54;6.40;99.90
1992;DHT22;997;48.448;8.924;2024-01-30T09:24:19;6.40;99.90
1992;DHT22;997;48.448;8.924;2024-01-30T09:26:45;6.40;99.90
1992;DHT22;997;48.448;8.924;2024-01-30T09:29:11;6.50;99.90
1992;DHT22;997;48.448;8.924;2024-01-30T09:31:36;6.60;99.90
1992;DHT22;997;48.448;8.924;2024-01-30T09:34:02;6.70;99.90
1992;DHT22;997;48.448;8.924;2024-01-30T09:36:28;6.80;99.90
1992;DHT22;997;48.448;8.924;2024-01-30T09:38:54;7.00;99.90
1992;DHT22;997;48.448;8.924;2024-01-30T09:41:20;7.10;99.90
1992;DHT22;997;48.448;8.924;2024-01-30T09:43:50;7.20;99.90
1992;DHT22;997;48.448;8.924;2024-01-30T09:46:17;7.30;99.90
1992;DHT22;997;48.448;8.924;2024-01-30T09:48:49;7.50;99.90
1992;DHT22;997;48.448;8.924;2024-01-30T09:51:15;7.70;99.90
1992;DHT22;997;48.448;8.924;2024-01-30T09:53:42;7.80;99.90
1992;DHT22;997;48.448;8.924;2024-01-30T09:56:09;7.90;99.90
1992;DHT22;997;48.448;8.924;2024-01-30T09:58:36;7.90;99.90
1992;DHT22;997;48.448;8.924;2024-01-30T10:01:02;8.00;99.90
1992;DHT22;997;48.448;8.924;2024-01-30T10:03:28;8.10;99.90
1992;DHT22;997;48.448;8.924;2024-01-30T10:05:55;8.20;99.90
1992;DHT22;997;48.448;8.924;2024-01-30T10:08:21;8.30;99.90
1992;DHT22;997;48.448;8.924;2024-01-30T10:10:47;8.40;99.90
1992;DHT22;997;48.448;8.924;2024-01-30T10:13:13;8.50;99.90
1992;DHT22;997;48.448;8.924;2024-01-30T10:15:39;8.50;99.90
1992;DHT22;997;48.448;8.924;2024-01-30T10:18:06;8.50;99.90
1992;DHT22;997;48.448;8.924;2024-01-30T10:20:32;8.60;99.90
1992;DHT22;997;48.448;8.924;2024-01-30T10:22:58;8.60;99.90
1992;DHT22;997;48.448;8.924;2024-01-30T10:25:25;8.60;99.90
1992;DHT22;997;48.448;8.924;2024-01-30T10:27:55;8.50;99.90
1992;DHT22;997;48.448;8.924;2024-01-30T10:30:24;8.50;99.90
1992;DHT22;997;48.448;8.924;2024-01-30T10:32:50;8.60;99.90
1992;DHT22;997;48.448;8.924;2024-01-30T10:35:17;8.70;99.90
1992;DHT22;997;48.448;8.924;2024-01-30T10:37:47;8.70;99.90
1992;DHT22;997;48.448;8.924;2024-01-30T10:40:14;8.80;99.90
1992;DHT22;997;48.448;8.924;2024-01-30T10:42:45;8.90;99.90
1992;DHT22;997;48.448;8.924;2024-01-30T10:45:14;9.00;99.90
1992;DHT22;997;48.448;8.924;2024-01-30T10:47:50;9.20;99.90
1992;DHT22;997;48.448;8.924;2024-01-30T10:50:16;9.30;99.90
1992;DHT22;997;48.448;8.924;2024-01-30T10:52:42;9.40;99.90
1992;DHT22;997;48.448;8.924;2024-01-30T10:55:10;9.50;99.90
1992;DHT22;997;48.448;8.924;2024-01-30T10:57:36;9.60;99.90
1992;DHT22;997;48.448;8.924;2024-01-30T11:00:08;9.70;99.90
1992;DHT22;997;48.448;8.924;2024-01-30T11:02:43;9.90;99.90
1992;DHT22;997;48.448;8.924;2024-01-30T11:05:09;9.90;99.90
1992;DHT22;997;48.448;8.924;2024-01-30T11:07:35;10.00;99.90
1992;DHT22;997;48.448;8.924;2024-01-30T11:10:02;10.10;99.90
1992;DHT22;997;48.448;8.924;2024-01-30T11:12:33;10.20;99.90
1992;DHT22;997;48.448;8.924;2024-01-30T11:17:50;10.40;99.90
1992;DHT22;997;48.448;8.924;2024-01-30T11:20:25;10.50;99.90
1992;DHT22;997;48.448;8.924;2024-01-30T11:22:52;10.50;99.90
1992;DHT22;997;48.448;8.924;2024-01-30T11:25:20;10.60;99.90
1992;DHT22;997;48.448;8.924;2024-01-30T11:27:46;10.80;99.90
1992;DHT22;997;48.448;8.924;2024-01-30T11:30:25;10.90;99.90
1992;DHT22;997;48.448;8.924;2024-01-30T11:35:39;11.10;99.90
1992;DHT22;997;48.448;8.924;2024-01-30T11:38:07;11.10;99.90
1992;DHT22;997;48.448;8.924;2024-01-30T11:40:33;11.30;99.90
1992;DHT22;997;48.448;8.924;2024-01-30T11:43:01;11.40;99.90
1992;DHT22;997;48.448;8.924;2024-01-30T11:45:30;11.60;99.90
1992;DHT22;997;48.448;8.924;2024-01-30T11:47:56;11.60;99.90
1992;DHT22;997;48.448;8.924;2024-01-30T11:50:23;11.80;99.90
1992;DHT22;997;48.448;8.924;2024-01-30T11:52:49;11.90;99.90
1992;DHT22;997;48.448;8.924;2024-01-30T11:55:15;11.90;99.90
1992;DHT22;997;48.448;8.924;2024-01-30T11:57:40;12.00;99.90
1992;DHT22;997;48.448;8.924;2024-01-30T12:00:13;12.10;99.90
1992;DHT22;997;48.448;8.924;2024-01-30T12:02:40;12.20;99.90
1992;DHT22;997;48.448;8.924;2024-01-30T12:05:06;12.30;99.90
1992;DHT22;997;48.448;8.924;2024-01-30T12:07:33;12.40;99.90
1992;DHT22;997;48.448;8.924;2024-01-30T12:09:59;12.40;99.90
1992;DHT22;997;48.448;8.924;2024-01-30T12:12:29;12.50;99.90
1992;DHT22;997;48.448;8.924;2024-01-30T12:14:56;12.60;99.90
1992;DHT22;997;48.448;8.924;2024-01-30T12:17:31;12.60;99.90
1992;DHT22;997;48.448;8.924;2024-01-30T12:20:07;12.70;99.90
1992;DHT22;997;48.448;8.924;2024-01-30T12:22:49;12.70;99.90
1992;DHT22;997;48.448;8.924;2024-01-30T12:25:18;12.80;99.90
1992;DHT22;997;48.448;8.924;2024-01-30T12:27:47;12.80;99.90
1992;DHT22;997;48.448;8.924;2024-01-30T12:30:15;12.80;99.90
1992;DHT22;997;48.448;8.924;2024-01-30T12:32:44;12.90;99.90
1992;DHT22;997;48.448;8.924;2024-01-30T12:35:17;12.90;99.90
1992;DHT22;997;48.448;8.924;2024-01-30T12:37:44;12.90;99.90
1992;DHT22;997;48.448;8.924;2024-01-30T12:40:13;12.90;99.90
1992;DHT22;997;48.448;8.924;2024-01-30T12:42:43;12.80;99.90
1992;DHT22;997;48.448;8.924;2024-01-30T12:45:11;12.80;99.90
1992;DHT22;997;48.448;8.924;2024-01-30T12:47:37;12.80;99.90
1992;DHT22;997;48.448;8.924;2024-01-30T12:50:03;12.80;99.90
1992;DHT22;997;48.448;8.924;2024-01-30T12:52:29;12.80;99.90
1992;DHT22;997;48.448;8.924;2024-01-30T12:54:54;12.80;99.90
1992;DHT22;997;48.448;8.924;2024-01-30T12:57:20;12.90;99.90
1992;DHT22;997;48.448;8.924;2024-01-30T12:59:46;12.70;99.90
1992;DHT22;997;48.448;8.924;2024-01-30T13:02:13;12.70;99.90
1992;DHT22;997;48.448;8.924;2024-01-30T13:04:39;12.60;99.90
1992;DHT22;997;48.448;8.924;2024-01-30T13:07:05;12.60;99.90
1992;DHT22;997;48.448;8.924;2024-01-30T13:09:31;12.60;99.90
1992;DHT22;997;48.448;8.924;2024-01-30T13:11:57;12.60;99.90
1992;DHT22;997;48.448;8.924;2024-01-30T13:14:24;12.60;99.90
1992;DHT22;997;48.448;8.924;2024-01-30T13:16:49;12.60;99.90
1992;DHT22;997;48.448;8.924;2024-01-30T13:19:16;12.70;99.90
1992;DHT22;997;48.448;8.924;2024-01-30T13:21:42;12.70;99.90
1992;DHT22;997;48.448;8.924;2024-01-30T13:24:07;12.80;99.90
1992;DHT22;997;48.448;8.924;2024-01-30T13:26:33;12.80;99.90
1992;DHT22;997;48.448;8.924;2024-01-30T13:28:59;12.80;99.90
1992;DHT22;997;48.448;8.924;2024-01-30T13:31:24;12.90;99.90
1992;DHT22;997;48.448;8.924;2024-01-30T13:33:50;12.90;99.90
1992;DHT22;997;48.448;8.924;2024-01-30T13:36:16;13.00;99.90
1992;DHT22;997;48.448;8.924;2024-01-30T13:38:42;13.10;99.90
1992;DHT22;997;48.448;8.924;2024-01-30T13:41:07;13.30;99.90
1992;DHT22;997;48.448;8.924;2024-01-30T13:43:33;13.30;99.90
1992;DHT22;997;48.448;8.924;2024-01-30T13:45:59;13.40;99.90
1992;DHT22;997;48.448;8.924;2024-01-30T13:48:25;13.50;99.90
1992;DHT22;997;48.448;8.924;2024-01-30T13:50:50;13.60;99.90
1992;DHT22;997;48.448;8.924;2024-01-30T13:53:16;13.60;99.90
1992;DHT22;997;48.448;8.924;2024-01-30T13:55:41;13.70;99.90
1992;DHT22;997;48.448;8.924;2024-01-30T13:58:07;13.70;99.90
1992;DHT22;997;48.448;8.924;2024-01-30T14:00:33;13.80;99.90
1992;DHT22;997;48.448;8.924;2024-01-30T14:02:59;13.80;99.90
1992;DHT22;997;48.448;8.924;2024-01-30T14:05:25;13.70;99.90
1992;DHT22;997;48.448;8.924;2024-01-30T14:07:52;13.80;99.90
1992;DHT22;997;48.448;8.924;2024-01-30T14:10:17;13.80;99.90
1992;DHT22;997;48.448;8.924;2024-01-30T14:12:44;13.80;99.90
1992;DHT22;997;48.448;8.924;2024-01-30T14:15:10;13.80;99.90
1992;DHT22;997;48.448;8.924;2024-01-30T14:17:36;13.70;99.90
1992;DHT22;997;48.448;8.924;2024-01-30T14:20:03;13.70;99.90
1992;DHT22;997;48.448;8.924;2024-01-30T14:22:33;13.70;99.90
1992;DHT22;997;48.448;8.924;2024-01-30T14:24:59;13.60;99.90
1992;DHT22;997;48.448;8.924;2024-01-30T14:27:25;13.60;99.90
1992;DHT22;997;48.448;8.924;2024-01-30T14:29:50;13.60;99.90
1992;DHT22;997;48.448;8.924;2024-01-30T14:32:16;13.60;99.90
1992;DHT22;997;48.448;8.924;2024-01-30T14:34:41;13.70;99.90
1992;DHT22;997;48.448;8.924;2024-01-30T14:37:07;13.60;99.90
1992;DHT22;997;48.448;8.924;2024-01-30T14:39:33;13.60;99.90
1992;DHT22;997;48.448;8.924;2024-01-30T14:41:59;13.70;99.90
1992;DHT22;997;48.448;8.924;2024-01-30T14:44:25;13.70;99.90
1992;DHT22;997;48.448;8.924;2024-01-30T14:46:51;13.60;99.90
1992;DHT22;997;48.448;8.924;2024-01-30T14:49:17;13.50;99.90
1992;DHT22;997;48.448;8.924;2024-01-30T14:51:42;13.40;99.90
1992;DHT22;997;48.448;8.924;2024-01-30T14:54:08;13.30;99.90
1992;DHT22;997;48.448;8.924;2024-01-30T14:56:34;13.30;99.90
1992;DHT22;997;48.448;8.924;2024-01-30T14:59:00;13.30;99.90
1992;DHT22;997;48.448;8.924;2024-01-30T15:01:26;13.30;99.90
1992;DHT22;997;48.448;8.924;2024-01-30T15:03:52;13.30;99.90
1992;DHT22;997;48.448;8.924;2024-01-30T15:06:18;13.10;99.90
1992;DHT22;997;48.448;8.924;2024-01-30T15:08:44;13.00;99.90
1992;DHT22;997;48.448;8.924;2024-01-30T15:11:10;13.00;99.90
1992;DHT22;997;48.448;8.924;2024-01-30T15:13:36;12.90;99.90
1992;DHT22;997;48.448;8.924;2024-01-30T15:16:02;12.70;99.90
1992;DHT22;997;48.448;8.924;2024-01-30T15:18:30;12.60;99.90
1992;DHT22;997;48.448;8.924;2024-01-30T15:20:56;12.70;99.90
1992;DHT22;997;48.448;8.924;2024-01-30T15:23:21;12.70;99.90
1992;DHT22;997;48.448;8.924;2024-01-30T15:25:47;12.60;99.90
1992;DHT22;997;48.448;8.924;2024-01-30T15:28:13;12.60;99.90
1992;DHT22;997;48.448;8.924;2024-01-30T15:30:40;12.70;99.90
1992;DHT22;997;48.448;8.924;2024-01-30T15:33:09;12.70;99.90
1992;DHT22;997;48.448;8.924;2024-01-30T15:35:34;12.70;99.90
1992;DHT22;997;48.448;8.924;2024-01-30T15:38:00;12.90;99.90
1992;DHT22;997;48.448;8.924;2024-01-30T15:40:26;12.90;99.90
1992;DHT22;997;48.448;8.924;2024-01-30T15:42:52;12.90;99.90
1992;DHT22;997;48.448;8.924;2024-01-30T15:45:17;12.70;99.90
1992;DHT22;997;48.448;8.924;2024-01-30T15:47:43;12.60;99.90
1992;DHT22;997;48.448;8.924;2024-01-30T15:50:11;12.30;99.90
1992;DHT22;997;48.448;8.924;2024-01-30T15:52:36;12.20;99.90
1992;DHT22;997;48.448;8.924;2024-01-30T15:55:02;12.10;99.90
1992;DHT22;997;48.448;8.924;2024-01-30T15:57:28;12.10;99.90
1992;DHT22;997;48.448;8.924;2024-01-30T15:59:54;11.90;99.90
1992;DHT22;997;48.448;8.924;2024-01-30T16:02:20;11.90;99.90
1992;DHT22;997;48.448;8.924;2024-01-30T16:04:46;12.00;99.90
1992;DHT22;997;48.448;8.924;2024-01-30T16:07:12;12.10;99.90
1992;DHT22;997;48.448;8.924;2024-01-30T16:09:38;12.20;99.90
1992;DHT22;997;48.448;8.924;2024-01-30T16:12:04;12.30;99.90
1992;DHT22;997;48.448;8.924;2024-01-30T16:14:29;12.30;99.90
1992;DHT22;997;48.448;8.924;2024-01-30T16:16:55;12.40;99.90
1992;DHT22;997;48.448;8.924;2024-01-30T16:19:21;12.40;99.90
1992;DHT22;997;48.448;8.924;2024-01-30T16:21:46;12.40;99.90
1992;DHT22;997;48.448;8.924;2024-01-30T16:24:12;12.40;99.90
1992;DHT22;997;48.448;8.924;2024-01-30T16:26:38;12.40;99.90
1992;DHT22;997;48.448;8.924;2024-01-30T16:29:05;12.40;99.90